Time;durP1;ratioP1;P1;durP2;ratioP2;P2;SDS_P1;SDS_P2;PMS_P1;PMS_P2;Temp;Humidity;BMP_temperature;BMP_pressure;BME280_temperature;BME280_humidity;BME280_pressure;Samples;Min_cycle;Max_cycle;Signal;HPM_P1;HPM_P2
2022/05/29 00:01:14;;;;;;;;;;;9.70;99.90;;;;;;5093778;28;20243;-77
2022/05/29 00:03:40;;;;;;;;;;;9.70;99.90;;;;;;5093676;28;20017;-77
2022/05/29 00:06:06;;;;;;;;;;;9.60;99.90;;;;;;5093032;28;19908;-77
2022/05/29 00:08:33;;;;;;;;;;;9.60;99.90;;;;;;5093568;28;20353;-78
2022/05/29 00:10:59;;;;;;;;;;;9.60;99.90;;;;;;5093036;28;19912;-77
2022/05/29 00:13:25;;;;;;;;;;;9.60;99.90;;;;;;5093378;28;19916;-77
2022/05/29 00:15:51;;;;;;;;;;;9.80;99.90;;;;;;5092778;28;19959;-76
2022/05/29 00:18:17;;;;;;;;;;;9.80;99.90;;;;;;5093423;28;19950;-77
2022/05/29 00:20:46;;;;;;;;;;;9.70;99.90;;;;;;5093186;28;20400;-77
2022/05/29 00:23:11;;;;;;;;;;;9.70;99.90;;;;;;5092626;28;19918;-77
2022/05/29 00:25:37;;;;;;;;;;;9.60;99.90;;;;;;5092855;28;19908;-77
2022/05/29 00:28:03;;;;;;;;;;;9.60;99.90;;;;;;5092402;28;19908;-77
2022/05/29 00:30:29;;;;;;;;;;;9.70;99.90;;;;;;5093478;28;19915;-77
2022/05/29 00:32:54;;;;;;;;;;;9.80;99.90;;;;;;5092652;28;20007;-77
2022/05/29 00:35:20;;;;;;;;;;;9.90;99.90;;;;;;5093048;28;19913;-77
2022/05/29 00:37:47;;;;;;;;;;;9.90;99.90;;;;;;5093068;28;20387;-78
2022/05/29 00:40:42;;;;;;;;;;;10.00;99.90;;;;;;5092443;28;19994;-77
2022/05/29 00:43:08;;;;;;;;;;;10.00;99.90;;;;;;5069867;28;19908;-78
2022/05/29 00:45:46;;;;;;;;;;;10.00;99.90;;;;;;5093060;28;19916;-78
2022/05/29 00:48:17;;;;;;;;;;;9.90;99.90;;;;;;5092488;28;20018;-77
2022/05/29 00:50:43;;;;;;;;;;;9.80;99.90;;;;;;5093056;28;20046;-78
2022/05/29 00:53:09;;;;;;;;;;;9.90;99.90;;;;;;5092082;28;19948;-78
2022/05/29 00:55:34;;;;;;;;;;;10.00;99.90;;;;;;5093043;28;20311;-78
2022/05/29 00:58:01;;;;;;;;;;;9.80;99.90;;;;;;5092355;28;19955;-77
2022/05/29 01:00:29;;;;;;;;;;;9.80;99.90;;;;;;5092642;28;19915;-78
2022/05/29 01:02:55;;;;;;;;;;;9.80;99.90;;;;;;5092305;28;19998;-77
2022/05/29 01:05:23;;;;;;;;;;;9.80;99.90;;;;;;5092984;28;19912;-77
2022/05/29 01:07:51;;;;;;;;;;;9.90;99.90;;;;;;5092846;28;19908;-77
2022/05/29 01:10:17;;;;;;;;;;;10.00;99.90;;;;;;5092322;28;19908;-78
2022/05/29 01:12:54;;;;;;;;;;;10.00;99.90;;;;;;5092742;28;19912;-78
2022/05/29 01:15:37;;;;;;;;;;;10.10;99.90;;;;;;5092647;28;19919;-78
2022/05/29 01:18:22;;;;;;;;;;;10.00;99.90;;;;;;5091707;28;19920;-77
2022/05/29 01:20:56;;;;;;;;;;;10.00;99.90;;;;;;5092758;28;19908;-78
2022/05/29 01:23:27;;;;;;;;;;;10.00;99.90;;;;;;5092819;28;19908;-78
2022/05/29 01:26:12;;;;;;;;;;;9.90;99.90;;;;;;5092660;28;19908;-76
2022/05/29 01:28:40;;;;;;;;;;;9.90;99.90;;;;;;5092419;28;19922;-78
2022/05/29 01:31:09;;;;;;;;;;;9.90;99.90;;;;;;5092796;28;20012;-77
2022/05/29 01:33:39;;;;;;;;;;;9.80;99.90;;;;;;5074624;28;20254;-78
2022/05/29 01:36:26;;;;;;;;;;;9.70;99.90;;;;;;5092143;28;19908;-77
2022/05/29 01:38:56;;;;;;;;;;;9.60;99.90;;;;;;5096903;28;19915;-77
2022/05/29 01:41:28;;;;;;;;;;;9.60;99.90;;;;;;5096499;28;19912;-77
2022/05/29 01:44:08;;;;;;;;;;;9.50;99.90;;;;;;5096144;28;19908;-75
2022/05/29 01:46:35;;;;;;;;;;;9.50;99.90;;;;;;5096149;28;19909;-77
2022/05/29 01:49:05;;;;;;;;;;;9.50;99.90;;;;;;5095844;28;19908;-77
2022/05/29 01:51:30;;;;;;;;;;;9.50;99.90;;;;;;5096007;28;19915;-77
2022/05/29 01:54:15;;;;;;;;;;;9.50;99.90;;;;;;5096015;28;20276;-76
2022/05/29 01:56:45;;;;;;;;;;;9.50;99.90;;;;;;5096235;28;19923;-77
2022/05/29 01:59:31;;;;;;;;;;;9.40;99.90;;;;;;5095735;28;19912;-78
2022/05/29 02:02:07;;;;;;;;;;;9.40;99.90;;;;;;5095829;28;19908;-76
2022/05/29 02:04:34;;;;;;;;;;;9.40;99.90;;;;;;5096273;28;19908;-78
2022/05/29 02:09:50;;;;;;;;;;;9.40;99.90;;;;;;5096140;28;19953;-77
2022/05/29 02:12:18;;;;;;;;;;;9.40;99.90;;;;;;5095121;28;19965;-77
2022/05/29 02:14:50;;;;;;;;;;;9.30;99.90;;;;;;5098163;28;19919;-77
2022/05/29 02:17:17;;;;;;;;;;;9.20;99.90;;;;;;5099393;28;19920;-77
2022/05/29 02:19:43;;;;;;;;;;;9.30;99.90;;;;;;5096543;28;20320;-77
2022/05/29 02:22:17;;;;;;;;;;;9.30;99.90;;;;;;5094955;28;19961;-78
2022/05/29 02:24:45;;;;;;;;;;;9.20;99.90;;;;;;5095896;28;19951;-78
2022/05/29 02:27:13;;;;;;;;;;;9.20;99.90;;;;;;5095137;28;20419;-77
2022/05/29 02:29:40;;;;;;;;;;;9.10;99.90;;;;;;5095599;28;19944;-77
2022/05/29 02:32:11;;;;;;;;;;;9.10;99.90;;;;;;5094904;28;19956;-77
2022/05/29 02:34:55;;;;;;;;;;;9.00;99.90;;;;;;5095505;28;19959;-77
2022/05/29 02:37:32;;;;;;;;;;;9.00;99.90;;;;;;5094737;28;19919;-77
2022/05/29 02:40:10;;;;;;;;;;;9.00;99.90;;;;;;5077350;28;19977;-76
2022/05/29 02:42:47;;;;;;;;;;;9.00;99.90;;;;;;5095081;28;19962;-78
2022/05/29 02:45:15;;;;;;;;;;;8.90;99.90;;;;;;5094762;28;19959;-78
2022/05/29 02:47:47;;;;;;;;;;;8.90;99.90;;;;;;5094920;28;19916;-77
2022/05/29 02:50:31;;;;;;;;;;;9.00;99.90;;;;;;5094698;28;19908;-77
2022/05/29 02:52:58;;;;;;;;;;;9.00;99.90;;;;;;5095086;28;19912;-78
2022/05/29 02:55:24;;;;;;;;;;;9.00;99.90;;;;;;5094711;28;19919;-78
2022/05/29 02:57:54;;;;;;;;;;;8.90;99.90;;;;;;5076774;28;20276;-77
2022/05/29 03:00:20;;;;;;;;;;;8.90;99.90;;;;;;5099011;28;19912;-78
2022/05/29 03:03:05;;;;;;;;;;;8.90;99.90;;;;;;5108301;28;19930;-77
2022/05/29 03:05:36;;;;;;;;;;;8.90;99.90;;;;;;5096179;28;19916;-78
2022/05/29 03:08:04;;;;;;;;;;;9.00;99.90;;;;;;5095018;28;19912;-75
2022/05/29 03:10:36;;;;;;;;;;;8.90;99.90;;;;;;5095095;28;19908;-77
2022/05/29 03:13:11;;;;;;;;;;;8.90;99.90;;;;;;5094083;28;20498;-75
2022/05/29 03:16:15;;;;;;;;;;;8.90;99.90;;;;;;5094544;28;19913;-77
2022/05/29 03:18:44;;;;;;;;;;;8.90;99.90;;;;;;5052010;28;19920;-77
2022/05/29 03:21:16;;;;;;;;;;;8.80;99.90;;;;;;5051363;28;20062;-77
2022/05/29 03:23:44;;;;;;;;;;;8.80;99.90;;;;;;5052034;28;19913;-77
2022/05/29 03:26:20;;;;;;;;;;;8.70;99.90;;;;;;5051367;28;19978;-77
2022/05/29 03:28:48;;;;;;;;;;;8.70;99.90;;;;;;5052048;28;19913;-78
2022/05/29 03:31:17;;;;;;;;;;;8.60;99.90;;;;;;5050967;28;19909;-77
2022/05/29 03:33:45;;;;;;;;;;;8.70;99.90;;;;;;5068396;28;19917;-77
2022/05/29 03:36:15;;;;;;;;;;;8.70;99.90;;;;;;5051268;28;19909;-77
2022/05/29 03:38:41;;;;;;;;;;;8.70;99.90;;;;;;5051770;28;19913;-77
2022/05/29 03:41:15;;;;;;;;;;;8.70;99.90;;;;;;5051143;28;20368;-77
2022/05/29 03:43:42;;;;;;;;;;;8.70;99.90;;;;;;5051264;28;19952;-78
2022/05/29 03:46:07;;;;;;;;;;;8.60;99.90;;;;;;5052914;28;19943;-78
2022/05/29 03:48:34;;;;;;;;;;;8.60;99.90;;;;;;5073102;28;19908;-77
2022/05/29 03:51:03;;;;;;;;;;;8.60;99.90;;;;;;5097238;28;19908;-77
2022/05/29 03:53:29;;;;;;;;;;;8.50;99.90;;;;;;5094240;28;19951;-77
2022/05/29 03:55:54;;;;;;;;;;;8.40;99.90;;;;;;5093958;28;19958;-77
2022/05/29 03:58:20;;;;;;;;;;;8.40;99.90;;;;;;5093166;28;19961;-77
2022/05/29 04:00:45;;;;;;;;;;;8.40;99.90;;;;;;5093221;28;19919;-77
2022/05/29 04:03:11;;;;;;;;;;;8.30;99.90;;;;;;5093303;28;20250;-77
2022/05/29 04:05:36;;;;;;;;;;;8.30;99.90;;;;;;5094016;28;19908;-77
2022/05/29 04:13:37;;;;;;;;;;;8.40;99.90;;;;;;5093192;28;19935;-77
2022/05/29 04:16:03;;;;;;;;;;;8.30;99.90;;;;;;5093169;28;19966;-77
2022/05/29 04:18:29;;;;;;;;;;;8.40;99.90;;;;;;5092942;28;19916;-78
2022/05/29 04:20:54;;;;;;;;;;;8.30;99.90;;;;;;5093446;28;19923;-77
2022/05/29 04:23:20;;;;;;;;;;;8.40;99.90;;;;;;5092901;28;19942;-77
2022/05/29 04:25:46;;;;;;;;;;;8.30;99.90;;;;;;5093500;28;19978;-77
2022/05/29 04:28:11;;;;;;;;;;;8.40;99.90;;;;;;5092845;28;20046;-77
2022/05/29 04:30:37;;;;;;;;;;;8.40;99.90;;;;;;5093166;28;19909;-77
2022/05/29 04:33:02;;;;;;;;;;;8.40;99.90;;;;;;5078764;28;19975;-77
2022/05/29 04:35:29;;;;;;;;;;;8.40;99.90;;;;;;5106100;28;19912;-77
2022/05/29 04:37:54;;;;;;;;;;;8.30;99.90;;;;;;5094241;28;19969;-77
2022/05/29 04:40:20;;;;;;;;;;;8.30;99.90;;;;;;5093167;28;20349;-77
2022/05/29 04:42:46;;;;;;;;;;;8.50;99.90;;;;;;5093215;28;19915;-76
2022/05/29 04:45:11;;;;;;;;;;;8.40;99.90;;;;;;5092510;28;19966;-76
2022/05/29 04:47:37;;;;;;;;;;;8.60;99.90;;;;;;5093256;28;19912;-77
2022/05/29 04:50:03;;;;;;;;;;;8.60;99.90;;;;;;5093144;28;19908;-77
2022/05/29 04:52:29;;;;;;;;;;;8.70;99.90;;;;;;5092375;28;19920;-77
2022/05/29 04:54:55;;;;;;;;;;;8.80;99.90;;;;;;5093346;28;19919;-77
2022/05/29 04:57:20;;;;;;;;;;;8.90;99.90;;;;;;5092483;28;20003;-76
2022/05/29 04:59:46;;;;;;;;;;;8.90;99.90;;;;;;5093094;28;20304;-77
2022/05/29 05:02:11;;;;;;;;;;;9.10;99.90;;;;;;5092230;28;20037;-77
2022/05/29 05:04:37;;;;;;;;;;;9.20;99.90;;;;;;5093269;28;19908;-78
2022/05/29 05:07:03;;;;;;;;;;;9.40;99.90;;;;;;5093012;28;19990;-78
2022/05/29 05:09:31;;;;;;;;;;;9.50;99.90;;;;;;5092308;28;20111;-77
2022/05/29 05:11:57;;;;;;;;;;;9.50;99.90;;;;;;5095503;28;19923;-78
2022/05/29 05:14:23;;;;;;;;;;;9.60;99.90;;;;;;5096554;28;19908;-77
2022/05/29 05:16:49;;;;;;;;;;;9.90;99.90;;;;;;5097048;28;19967;-77
2022/05/29 05:19:15;;;;;;;;;;;10.00;99.90;;;;;;5098372;28;19912;-77
2022/05/29 05:21:41;;;;;;;;;;;10.20;99.90;;;;;;5110199;28;19959;-77
2022/05/29 05:24:07;;;;;;;;;;;10.30;99.90;;;;;;5099427;28;20353;-77
2022/05/29 05:26:32;;;;;;;;;;;10.50;99.90;;;;;;5096697;28;19922;-77
2022/05/29 05:28:59;;;;;;;;;;;10.60;99.90;;;;;;5096848;28;19931;-77
2022/05/29 05:31:27;;;;;;;;;;;10.80;99.90;;;;;;5096152;28;19908;-77
2022/05/29 05:33:53;;;;;;;;;;;11.00;99.90;;;;;;5096747;28;20053;-77
2022/05/29 05:36:19;;;;;;;;;;;11.10;99.90;;;;;;5096136;28;19949;-77
2022/05/29 05:38:45;;;;;;;;;;;11.20;99.90;;;;;;5096405;28;20000;-77
2022/05/29 05:41:11;;;;;;;;;;;11.40;99.90;;;;;;5096282;28;19915;-76
2022/05/29 05:43:37;;;;;;;;;;;11.50;99.90;;;;;;5096346;28;19912;-77
2022/05/29 05:46:06;;;;;;;;;;;11.60;99.90;;;;;;5096307;28;19949;-77
2022/05/29 05:48:33;;;;;;;;;;;11.80;99.90;;;;;;5095636;28;19967;-77
2022/05/29 05:50:59;;;;;;;;;;;11.80;99.90;;;;;;5096062;28;19915;-78
2022/05/29 05:53:25;;;;;;;;;;;11.80;99.90;;;;;;5095707;28;19916;-77
2022/05/29 05:55:51;;;;;;;;;;;12.00;99.90;;;;;;5096086;28;19912;-77
2022/05/29 05:58:16;;;;;;;;;;;12.10;99.90;;;;;;5095619;28;19914;-77
2022/05/29 06:00:45;;;;;;;;;;;12.00;99.90;;;;;;5096248;28;19940;-78
2022/05/29 06:03:11;;;;;;;;;;;12.10;99.90;;;;;;5096438;28;19966;-77
2022/05/29 06:05:37;;;;;;;;;;;12.10;99.90;;;;;;5097686;28;19908;-77
2022/05/29 06:08:02;;;;;;;;;;;12.20;99.90;;;;;;5111769;28;19908;-77
2022/05/29 06:10:28;;;;;;;;;;;12.10;99.90;;;;;;5098280;28;19915;-76
2022/05/29 06:12:53;;;;;;;;;;;12.20;99.90;;;;;;5096429;28;20019;-77
2022/05/29 06:15:19;;;;;;;;;;;12.00;99.90;;;;;;5095270;28;19908;-78
2022/05/29 06:17:45;;;;;;;;;;;12.20;99.90;;;;;;5095545;28;20373;-79
2022/05/29 06:20:11;;;;;;;;;;;12.20;99.90;;;;;;5095296;28;19916;-79
2022/05/29 06:22:40;;;;;;;;;;;12.10;99.90;;;;;;5094107;28;19962;-79
2022/05/29 06:25:07;;;;;;;;;;;12.30;99.90;;;;;;5095502;28;19908;-79
2022/05/29 06:27:36;;;;;;;;;;;12.50;99.90;;;;;;5095188;28;20272;-78
2022/05/29 06:30:02;;;;;;;;;;;12.60;99.90;;;;;;5095403;28;19915;-79
2022/05/29 06:32:28;;;;;;;;;;;12.70;99.90;;;;;;5095101;28;19917;-79
2022/05/29 06:34:53;;;;;;;;;;;12.60;99.90;;;;;;5095537;28;20265;-79
2022/05/29 06:37:19;;;;;;;;;;;12.70;99.90;;;;;;5101404;28;20276;-79
2022/05/29 06:39:45;;;;;;;;;;;12.60;99.90;;;;;;5095873;28;19955;-80
2022/05/29 06:42:13;;;;;;;;;;;12.60;99.90;;;;;;5095197;28;19912;-79
2022/05/29 06:44:40;;;;;;;;;;;12.50;99.90;;;;;;5076702;28;20296;-79
2022/05/29 06:47:10;;;;;;;;;;;12.60;99.90;;;;;;5094941;28;19920;-79
2022/05/29 06:49:36;;;;;;;;;;;12.70;99.90;;;;;;5093836;28;19916;-79
2022/05/29 06:52:07;;;;;;;;;;;12.80;99.90;;;;;;5095325;28;20381;-79
2022/05/29 06:54:33;;;;;;;;;;;13.00;99.90;;;;;;5114091;28;19923;-79
2022/05/29 06:56:58;;;;;;;;;;;13.00;99.90;;;;;;5104244;28;19959;-79
2022/05/29 06:59:24;;;;;;;;;;;13.20;99.90;;;;;;5096395;28;19912;-79
2022/05/29 07:07:18;;;;;;;;;;;13.00;99.90;;;;;;5094627;28;19914;-76
2022/05/29 07:09:43;;;;;;;;;;;12.90;99.90;;;;;;5094829;28;20276;-79
2022/05/29 07:12:09;;;;;;;;;;;12.90;99.90;;;;;;5094906;28;19942;-80
2022/05/29 07:14:36;;;;;;;;;;;13.00;99.90;;;;;;5093766;28;19908;-80
2022/05/29 07:17:02;;;;;;;;;;;13.10;99.90;;;;;;5094095;28;20412;-79
2022/05/29 07:19:28;;;;;;;;;;;13.20;99.90;;;;;;5094058;28;19912;-80
2022/05/29 07:21:55;;;;;;;;;;;13.20;99.90;;;;;;5094899;28;20268;-79
2022/05/29 07:24:21;;;;;;;;;;;13.30;99.90;;;;;;5093926;28;19961;-79
2022/05/29 07:26:46;;;;;;;;;;;13.30;99.90;;;;;;5095013;28;19908;-79
2022/05/29 07:29:15;;;;;;;;;;;13.30;99.90;;;;;;5094551;28;19946;-78
2022/05/29 07:31:40;;;;;;;;;;;13.30;99.90;;;;;;5093903;28;19916;-78
2022/05/29 07:34:06;;;;;;;;;;;13.30;99.90;;;;;;5093397;28;20254;-78
2022/05/29 07:36:31;;;;;;;;;;;13.30;99.90;;;;;;5093412;28;19978;-78
2022/05/29 07:38:58;;;;;;;;;;;13.30;99.90;;;;;;5094182;28;19908;-78
2022/05/29 07:44:08;;;;;;;;;;;13.30;99.90;;;;;;5107291;28;20375;-78
2022/05/29 07:46:33;;;;;;;;;;;13.20;99.90;;;;;;5075703;28;19909;-78
2022/05/29 07:48:59;;;;;;;;;;;13.00;99.90;;;;;;5093853;28;19909;-78
2022/05/29 07:51:25;;;;;;;;;;;12.90;99.90;;;;;;5093460;28;19991;-77
2022/05/29 07:53:50;;;;;;;;;;;12.80;99.90;;;;;;5094007;28;19908;-78
2022/05/29 07:56:16;;;;;;;;;;;12.70;99.90;;;;;;5094006;28;19908;-78
2022/05/29 07:58:43;;;;;;;;;;;12.80;99.90;;;;;;5093312;28;20356;-78
2022/05/29 08:01:08;;;;;;;;;;;12.80;99.90;;;;;;5093921;28;19912;-78
2022/05/29 08:03:34;;;;;;;;;;;13.00;99.90;;;;;;5093321;28;20414;-77
2022/05/29 08:06:00;;;;;;;;;;;13.10;99.90;;;;;;5093841;28;19915;-78
2022/05/29 08:08:26;;;;;;;;;;;13.10;99.90;;;;;;5093227;28;19908;-78
2022/05/29 08:10:52;;;;;;;;;;;13.20;99.90;;;;;;5093344;28;19919;-78
2022/05/29 08:13:18;;;;;;;;;;;13.20;99.90;;;;;;5093515;28;19920;-78
2022/05/29 08:15:43;;;;;;;;;;;13.30;99.90;;;;;;5092850;28;19919;-77
2022/05/29 08:18:11;;;;;;;;;;;13.40;99.90;;;;;;5093516;28;19908;-78
2022/05/29 08:20:38;;;;;;;;;;;13.40;99.90;;;;;;5092664;28;20327;-78
2022/05/29 08:23:04;;;;;;;;;;;13.20;99.90;;;;;;5093607;28;19908;-78
2022/05/29 08:30:58;;;;;;;;;;;13.00;99.90;;;;;;5093137;28;19914;-77
2022/05/29 08:33:27;;;;;;;;;;;13.20;99.90;;;;;;5092672;28;19968;-76
2022/05/29 08:36:01;;;;;;;;;;;13.20;99.90;;;;;;5093291;28;19997;-77
2022/05/29 08:38:28;;;;;;;;;;;13.10;99.90;;;;;;5092663;28;20000;-77
2022/05/29 08:40:56;;;;;;;;;;;13.20;99.90;;;;;;5093241;28;19908;-78
2022/05/29 08:43:28;;;;;;;;;;;13.30;99.90;;;;;;5092860;28;20330;-75
2022/05/29 08:45:54;;;;;;;;;;;13.50;99.90;;;;;;5093034;28;20380;-78
2022/05/29 08:48:23;;;;;;;;;;;13.60;99.90;;;;;;5094223;28;19908;-77
2022/05/29 08:51:01;;;;;;;;;;;13.50;99.90;;;;;;5092698;28;19908;-76
2022/05/29 08:53:51;;;;;;;;;;;13.50;99.90;;;;;;5092357;28;19916;-77
2022/05/29 08:56:29;;;;;;;;;;;13.60;99.90;;;;;;5094135;28;19908;-79
2022/05/29 08:58:54;;;;;;;;;;;13.70;99.90;;;;;;5092865;28;19914;-79
2022/05/29 09:01:29;;;;;;;;;;;14.00;99.90;;;;;;5074965;28;19998;-80
2022/05/29 09:04:02;;;;;;;;;;;14.00;99.90;;;;;;5093084;28;19909;-77
2022/05/29 09:06:33;;;;;;;;;;;13.80;99.90;;;;;;5092441;28;20020;-77
2022/05/29 09:09:03;;;;;;;;;;;13.70;99.90;;;;;;5074830;28;19951;-77
2022/05/29 09:11:29;;;;;;;;;;;13.50;99.90;;;;;;5092149;28;20002;-77
2022/05/29 09:13:55;;;;;;;;;;;13.40;99.90;;;;;;5092909;28;19999;-77
2022/05/29 09:16:23;;;;;;;;;;;13.50;99.90;;;;;;5092690;28;19924;-77
2022/05/29 09:19:10;;;;;;;;;;;13.70;99.90;;;;;;5092229;28;20276;-78
2022/05/29 09:21:44;;;;;;;;;;;13.80;99.90;;;;;;5092205;28;19908;-77
2022/05/29 09:24:33;;;;;;;;;;;13.70;99.90;;;;;;5092860;28;19992;-77
2022/05/29 09:26:58;;;;;;;;;;;13.80;99.90;;;;;;5064605;28;20357;-77
2022/05/29 09:29:24;;;;;;;;;;;13.80;99.90;;;;;;5092670;28;19915;-77
2022/05/29 09:31:53;;;;;;;;;;;14.00;99.90;;;;;;5091244;28;19916;-77
2022/05/29 09:34:19;;;;;;;;;;;14.00;99.90;;;;;;5092530;28;19954;-77
2022/05/29 09:36:56;;;;;;;;;;;13.90;99.90;;;;;;5073956;28;19908;-77
2022/05/29 09:39:22;;;;;;;;;;;13.90;99.90;;;;;;5092528;28;19946;-78
2022/05/29 09:41:49;;;;;;;;;;;13.90;99.90;;;;;;5091933;28;20034;-77
2022/05/29 09:44:19;;;;;;;;;;;14.00;99.90;;;;;;5092468;28;19908;-77
2022/05/29 09:46:46;;;;;;;;;;;14.30;99.90;;;;;;5091813;28;19943;-78
2022/05/29 09:49:40;;;;;;;;;;;14.20;99.90;;;;;;5092046;28;19919;-78
2022/05/29 09:52:09;;;;;;;;;;;14.10;99.90;;;;;;5092496;28;20293;-78
2022/05/29 09:54:38;;;;;;;;;;;14.10;99.90;;;;;;5091665;28;20345;-78
2022/05/29 09:57:20;;;;;;;;;;;14.20;99.90;;;;;;5092431;28;19915;-78
2022/05/29 09:59:47;;;;;;;;;;;14.30;99.90;;;;;;5095459;28;19908;-77
2022/05/29 10:02:24;;;;;;;;;;;14.30;99.90;;;;;;5096203;28;19915;-78
2022/05/29 10:04:51;;;;;;;;;;;14.40;99.90;;;;;;5095432;28;19965;-77
2022/05/29 10:07:28;;;;;;;;;;;14.60;99.90;;;;;;5095814;28;19911;-77
2022/05/29 10:10:04;;;;;;;;;;;14.70;99.90;;;;;;5095586;28;19962;-77
2022/05/29 10:12:36;;;;;;;;;;;15.10;99.90;;;;;;5095466;28;19916;-76
2022/05/29 10:15:02;;;;;;;;;;;15.20;99.90;;;;;;5095212;28;19946;-76
2022/05/29 10:17:27;;;;;;;;;;;15.40;99.90;;;;;;5094666;28;19920;-77
2022/05/29 10:19:53;;;;;;;;;;;15.40;99.90;;;;;;5094339;28;19955;-77
2022/05/29 10:22:18;;;;;;;;;;;15.30;99.90;;;;;;5095228;28;19915;-77
2022/05/29 10:24:44;;;;;;;;;;;15.10;99.90;;;;;;5094314;28;20268;-78
2022/05/29 10:27:28;;;;;;;;;;;14.90;99.90;;;;;;5094888;28;20338;-78
2022/05/29 10:29:56;;;;;;;;;;;14.90;99.90;;;;;;5094495;28;19970;-77
2022/05/29 10:32:23;;;;;;;;;;;14.80;99.90;;;;;;5095064;28;20072;-78
2022/05/29 10:34:50;;;;;;;;;;;15.00;99.90;;;;;;5093908;28;20061;-78
2022/05/29 10:37:26;;;;;;;;;;;15.30;99.90;;;;;;5095145;28;19953;-79
2022/05/29 10:39:51;;;;;;;;;;;15.40;99.90;;;;;;5094739;28;19938;-79
2022/05/29 10:42:37;;;;;;;;;;;15.30;99.90;;;;;;5095181;28;20329;-78
2022/05/29 10:45:02;;;;;;;;;;;15.30;99.90;;;;;;5094828;28;19908;-77
2022/05/29 10:47:33;;;;;;;;;;;15.40;99.90;;;;;;5101613;28;19909;-77
2022/05/29 10:50:14;;;;;;;;;;;15.60;99.90;;;;;;5109603;28;19908;-77
2022/05/29 10:52:40;;;;;;;;;;;15.40;99.90;;;;;;5095078;28;19923;-77
2022/05/29 10:55:18;;;;;;;;;;;15.30;99.90;;;;;;5095273;28;19909;-77
2022/05/29 10:57:53;;;;;;;;;;;14.80;99.90;;;;;;5094445;28;19914;-77
2022/05/29 11:00:28;;;;;;;;;;;14.60;99.90;;;;;;5094813;28;20410;-79
2022/05/29 11:03:18;;;;;;;;;;;14.40;99.90;;;;;;5094117;28;19908;-78
2022/05/29 11:05:56;;;;;;;;;;;14.10;99.90;;;;;;5094372;28;19955;-78
2022/05/29 11:08:48;;;;;;;;;;;14.10;99.90;;;;;;5094815;28;20006;-79
2022/05/29 11:11:37;;;;;;;;;;;14.20;99.90;;;;;;5094421;28;20424;-78
2022/05/29 11:14:20;;;;;;;;;;;14.20;99.90;;;;;;5094696;28;19981;-78
2022/05/29 11:17:04;;;;;;;;;;;14.30;99.90;;;;;;5093890;28;20316;-79
2022/05/29 11:19:30;;;;;;;;;;;14.10;99.90;;;;;;5110047;28;19908;-78
2022/05/29 11:22:01;;;;;;;;;;;14.00;99.90;;;;;;5094074;28;19908;-78
2022/05/29 11:24:33;;;;;;;;;;;14.20;99.90;;;;;;5094402;28;19907;-79
2022/05/29 11:26:58;;;;;;;;;;;14.40;99.90;;;;;;5094246;28;19908;-78
2022/05/29 11:29:24;;;;;;;;;;;14.30;99.90;;;;;;5094298;28;19913;-78
2022/05/29 11:31:50;;;;;;;;;;;14.20;99.90;;;;;;5093731;28;19943;-78
2022/05/29 11:34:34;;;;;;;;;;;14.10;99.90;;;;;;5094284;28;20403;-78
2022/05/29 11:37:12;;;;;;;;;;;14.10;99.90;;;;;;5109837;28;20307;-78
2022/05/29 11:39:43;;;;;;;;;;;14.20;99.90;;;;;;5075573;28;20258;-77
2022/05/29 11:42:21;;;;;;;;;;;14.30;99.90;;;;;;5094659;28;19908;-78
2022/05/29 11:44:51;;;;;;;;;;;14.30;99.90;;;;;;5102384;28;19991;-78
2022/05/29 11:53:16;;;;;;;;;;;13.80;99.90;;;;;;5093772;28;19931;-78
2022/05/29 11:55:42;;;;;;;;;;;13.70;99.90;;;;;;5093422;28;19908;-77
2022/05/29 11:58:08;;;;;;;;;;;13.90;99.90;;;;;;5093925;28;20265;-78
2022/05/29 12:00:36;;;;;;;;;;;14.20;99.90;;;;;;5093981;28;19908;-78
2022/05/29 12:03:20;;;;;;;;;;;14.30;99.90;;;;;;5093672;28;19931;-78
2022/05/29 12:05:52;;;;;;;;;;;14.10;99.90;;;;;;5093502;28;19915;-78
2022/05/29 12:08:33;;;;;;;;;;;14.10;99.90;;;;;;5093738;28;19911;-78
2022/05/29 12:11:18;;;;;;;;;;;14.10;99.90;;;;;;5093069;28;19955;-77
2022/05/29 12:14:03;;;;;;;;;;;14.30;99.90;;;;;;5093193;28;19963;-77
2022/05/29 12:16:30;;;;;;;;;;;14.30;99.90;;;;;;5093491;28;19920;-78
2022/05/29 12:18:57;;;;;;;;;;;14.30;99.90;;;;;;5092773;28;19916;-77
2022/05/29 12:21:41;;;;;;;;;;;14.40;99.90;;;;;;5092622;28;19908;-78
2022/05/29 12:24:09;;;;;;;;;;;14.40;99.90;;;;;;5092945;28;19920;-78
2022/05/29 12:26:55;;;;;;;;;;;14.20;99.90;;;;;;5092951;28;19961;-78
2022/05/29 12:29:25;;;;;;;;;;;14.00;99.90;;;;;;5065341;28;19915;-78
2022/05/29 12:32:14;;;;;;;;;;;13.50;99.90;;;;;;5072333;28;19967;-78
2022/05/29 12:34:41;;;;;;;;;;;13.50;99.90;;;;;;5066470;28;19908;-78
2022/05/29 12:37:16;;;;;;;;;;;13.50;99.90;;;;;;5072793;28;19909;-78
2022/05/29 12:40:00;;;;;;;;;;;13.60;99.90;;;;;;5072177;28;19974;-76
2022/05/29 12:42:28;;;;;;;;;;;13.60;99.90;;;;;;5072736;28;20392;-77
2022/05/29 12:45:03;;;;;;;;;;;13.50;99.90;;;;;;5072689;28;20284;-77
2022/05/29 12:47:51;;;;;;;;;;;13.50;99.90;;;;;;5072949;28;19934;-78
2022/05/29 12:50:33;;;;;;;;;;;13.70;99.90;;;;;;5053228;28;19943;-78
2022/05/29 12:52:59;;;;;;;;;;;13.70;99.90;;;;;;5072028;28;20004;-77
2022/05/29 12:55:27;;;;;;;;;;;13.70;99.90;;;;;;5072779;28;19951;-78
2022/05/29 12:57:58;;;;;;;;;;;13.70;99.90;;;;;;5072317;28;19909;-77
2022/05/29 13:00:43;;;;;;;;;;;13.80;99.90;;;;;;5072671;28;20329;-78
2022/05/29 13:03:11;;;;;;;;;;;13.90;99.90;;;;;;5084426;28;19973;-78
2022/05/29 13:05:42;;;;;;;;;;;13.90;99.90;;;;;;5092141;28;20286;-77
2022/05/29 13:08:22;;;;;;;;;;;13.90;99.90;;;;;;5092453;28;19908;-78
2022/05/29 13:10:50;;;;;;;;;;;14.00;99.90;;;;;;5091843;28;20370;-77
2022/05/29 13:13:21;;;;;;;;;;;14.00;99.90;;;;;;5092281;28;19928;-78
2022/05/29 13:15:47;;;;;;;;;;;13.80;99.90;;;;;;5088720;28;19931;-77
2022/05/29 13:18:38;;;;;;;;;;;13.80;99.90;;;;;;5092238;28;19914;-78
2022/05/29 13:21:17;;;;;;;;;;;14.00;99.90;;;;;;5072037;28;19913;-78
2022/05/29 13:23:42;;;;;;;;;;;14.20;99.90;;;;;;5072125;28;19908;-76
2022/05/29 13:26:08;;;;;;;;;;;14.10;99.90;;;;;;5072459;28;20380;-78
2022/05/29 13:28:43;;;;;;;;;;;14.20;99.90;;;;;;5072502;28;19909;-78
2022/05/29 13:31:09;;;;;;;;;;;14.20;99.90;;;;;;5088224;28;19912;-78
2022/05/29 13:33:36;;;;;;;;;;;14.10;99.90;;;;;;5074156;28;20319;-78
2022/05/29 13:36:02;;;;;;;;;;;14.30;99.90;;;;;;5076114;28;20531;-78
2022/05/29 13:38:46;;;;;;;;;;;14.30;99.90;;;;;;5075950;28;19908;-78
2022/05/29 13:41:44;;;;;;;;;;;14.30;99.90;;;;;;5091663;28;19952;-78
2022/05/29 13:44:28;;;;;;;;;;;14.40;99.90;;;;;;5052341;28;19914;-77
2022/05/29 13:47:36;;;;;;;;;;;14.50;99.90;;;;;;5074864;28;19908;-77
2022/05/29 13:50:05;;;;;;;;;;;14.70;99.90;;;;;;5032993;28;19913;-77
2022/05/29 13:52:39;;;;;;;;;;;14.90;99.90;;;;;;5017271;28;20023;-79
2022/05/29 13:55:05;;;;;;;;;;;15.00;99.90;;;;;;5032943;28;19909;-78
2022/05/29 14:06:24;;;;;;;;;;;14.40;99.90;;;;;;5033714;28;20337;-78
2022/05/29 14:08:52;;;;;;;;;;;14.50;99.90;;;;;;5032945;28;19909;-78
2022/05/29 14:11:19;;;;;;;;;;;14.60;99.90;;;;;;5049345;28;19912;-78
2022/05/29 14:13:52;;;;;;;;;;;14.70;99.90;;;;;;5052478;28;20373;-76
2022/05/29 14:16:18;;;;;;;;;;;14.90;99.90;;;;;;5052812;28;20439;-78
2022/05/29 14:18:56;;;;;;;;;;;14.80;99.90;;;;;;5053131;28;19916;-78
2022/05/29 14:21:54;;;;;;;;;;;14.80;99.90;;;;;;5070149;28;20011;-78
2022/05/29 14:24:35;;;;;;;;;;;14.60;99.90;;;;;;5052315;28;19908;-78
2022/05/29 14:27:19;;;;;;;;;;;14.60;99.90;;;;;;5075112;28;20441;-78
2022/05/29 14:30:08;;;;;;;;;;;14.60;99.90;;;;;;5075143;28;19908;-78
2022/05/29 14:32:43;;;;;;;;;;;14.40;99.90;;;;;;5069334;28;19935;-78
2022/05/29 14:35:27;;;;;;;;;;;14.30;99.90;;;;;;5074763;28;20373;-78
2022/05/29 14:38:11;;;;;;;;;;;14.70;99.90;;;;;;5074595;28;20368;-78
2022/05/29 14:40:36;;;;;;;;;;;14.90;99.90;;;;;;5074915;28;19944;-78
2022/05/29 14:43:03;;;;;;;;;;;15.00;99.90;;;;;;5074690;28;19978;-78
2022/05/29 14:45:29;;;;;;;;;;;15.00;99.90;;;;;;5074781;28;19908;-78
2022/05/29 14:48:17;;;;;;;;;;;14.70;99.90;;;;;;5074324;28;19934;-78
2022/05/29 14:50:49;;;;;;;;;;;14.30;99.90;;;;;;5079979;28;19963;-78
2022/05/29 14:53:23;;;;;;;;;;;14.20;99.90;;;;;;5088426;28;19916;-78
2022/05/29 14:56:00;;;;;;;;;;;14.20;99.90;;;;;;5076918;28;19963;-75
2022/05/29 14:58:28;;;;;;;;;;;14.20;99.90;;;;;;5075224;28;19916;-78
2022/05/29 15:00:54;;;;;;;;;;;14.30;99.90;;;;;;5072969;28;20302;-77
2022/05/29 15:03:23;;;;;;;;;;;14.80;99.90;;;;;;5074737;28;20003;-77
2022/05/29 15:05:51;;;;;;;;;;;15.30;99.90;;;;;;5074055;28;19915;-76
2022/05/29 15:11:09;;;;;;;;;;;14.90;99.90;;;;;;5073849;28;19914;-77
2022/05/29 15:13:56;;;;;;;;;;;14.90;99.90;;;;;;5074715;28;20359;-77
2022/05/29 15:16:22;;;;;;;;;;;14.70;99.90;;;;;;5079954;28;19967;-78
2022/05/29 15:18:48;;;;;;;;;;;14.80;99.90;;;;;;5094728;28;19998;-77
2022/05/29 15:24:16;;;;;;;;;;;15.00;99.90;;;;;;5094054;28;19972;-76